Huvudsida
METAR-TAF:

METAR-TAF

Flygplatser :

Nyslott, Finland

Nyslotts flygplats

latitud: 61-57N, longitud: 028-57E, höjd: 95 m

Aktuellt väderrapport

Denna rapport gjordes för 31 minuter sedan, klockan 10:20 UTC
Vind 6 kt från ost/sydost
Temperatur -9°C
Fuktighet 85%
Tryck 1005 hPa
Sikt: 3900 m
Mulet på en höjd av 3900 ft
lätt snö, fuktdis

METAR: EFSA 171020Z AUTO 11006KT 3900 -SN BR OVC039 M09/M11 Q1005

Tid: 12:51 (10:51 UTC)

Väderprognos

Denna rapport gjordes för 2 timmar och 15 minuter sedan, klockan 08:36 UTC
Prognos gäller från 17 kl. 09 UTC till 17 kl. 18 UTC
Vind 7 kt från ost/sydost
Sikt: 8000 m
Mulet på en höjd av 2000 ft
lätt snö
Temporärt
från 17 kl. 09 UTC till 17 kl. 18 UTC
Sikt: 2500 m

TAF: EFSA 170836Z 1709/1718 12007KT 8000 -SN OVC020 TEMPO 1709/1718 2500

Aktuella väderrapporter och prognoser från 4000 flygplatser (METAR- och TAF-rapporter).

De tillgängliga stationerna syns som gula och röda prickar på kartan.

För musen över prickarna för att se namnen på stationerna.

Klicka sedan för att få väderrapporter och prognoser.

För att ändra kartan: Klicka på de gröna knapparna med ett svart kors på för att zooma in; den gröna knappen med ett streck på för att zooma ut; eller på de gröna pilarna för angränsande kartor.


METAR-TAF: